This is the latest recevied weather packets stored in our database for station/object KQ4OSL. If no packets are shown the sender has not sent any weather packets the latest 10 day(s).
| Time | Temp. | Humidity | Pressure | Rain* | Wind** | Luminosity | Snow |
|---|---|---|---|---|---|---|---|
| 1777951140 | 13.89° C | 76% | 1016.8 hPa | 0 mm | - | 0 W/m² | - |
| 1777950837 | 13.33° C | 79% | 1016.6 hPa | 0 mm | - | 0 W/m² | - |
| 1777950534 | 12.78° C | 80% | 1016.9 hPa | 0 mm | - | 0 W/m² | - |
| 1777950230 | 12.78° C | 84% | 1016.8 hPa | 0 mm | - | 0 W/m² | - |
| 1777949925 | 13.33° C | 81% | 1016.9 hPa | 0 mm | - | 0 W/m² | - |
| 1777949623 | 13.33° C | 80% | 1016.8 hPa | 0 mm | - | 0 W/m² | - |
| 1777949322 | 13.33° C | 80% | 1016.8 hPa | 0 mm | - | 0 W/m² | - |
| 1777949019 | 13.33° C | 80% | 1016.9 hPa | 0 mm | - | 0 W/m² | - |
| 1777948716 | 13.33° C | 80% | 1016.8 hPa | 0 mm | - | 0 W/m² | - |
| 1777948413 | 13.89° C | 79% | 1016.9 hPa | 0 mm | - | 0 W/m² | - |
| 1777948110 | 13.89° C | 79% | 1017 hPa | 0 mm | - | 0 W/m² | - |
| 1777947807 | 13.89° C | 78% | 1016.8 hPa | 0 mm | - | 0 W/m² | - |
| 1777947504 | 13.33° C | 81% | 1016.5 hPa | 0 mm | - | 0 W/m² | - |
| 1777947201 | 13.89° C | 81% | 1016.5 hPa | 0 mm | - | 0 W/m² | - |
| 1777946896 | 13.89° C | 79% | 1016.5 hPa | 0 mm | - | 0 W/m² | - |
| 1777946592 | 13.89° C | 78% | 1016.3 hPa | 0 mm | - | 0 W/m² | - |
| 1777946289 | 14.44° C | 79% | 1016.3 hPa | 0 mm | - | 0 W/m² | - |
| 1777945986 | 14.44° C | 78% | 1016.3 hPa | 0 mm | - | 0 W/m² | - |
| 1777945684 | 14.44° C | 77% | 1016.4 hPa | 0 mm | - | 0 W/m² | - |
| 1777945380 | 14.44° C | 78% | 1016.5 hPa | 0 mm | - | 0 W/m² | - |
| 1777945077 | 14.44° C | 78% | 1016.4 hPa | 0 mm | - | 0 W/m² | - |
| 1777944774 | 14.44° C | 78% | 1016.3 hPa | 0 mm | - | 0 W/m² | - |
| 1777944473 | 15° C | 76% | 1016.2 hPa | 0 mm | - | 0 W/m² | - |
| 1777944170 | 15° C | 74% | 1016.2 hPa | 0 mm | - | 0 W/m² | - |
| 1777943865 | 15.56° C | 74% | 1016.1 hPa | 0 mm | - | 0 W/m² | - |
* Rain latest hour (hover to see other rain measurements)
** Current wind speed in m/s (hover to see current wind gust speed)